createdAt,value
2022-08-31T00:01:02.110Z,99745.39
2022-08-31T00:02:04.401Z,99745.39
2022-08-31T00:03:07.758Z,99747.63
2022-08-31T00:04:10.692Z,99751.19
2022-08-31T00:05:13.405Z,99749.48
2022-08-31T00:06:19.685Z,99756.59
2022-08-31T00:07:22.245Z,99748.23
2022-08-31T00:08:24.882Z,99753.34
2022-08-31T00:09:27.330Z,99756.04
2022-08-31T00:10:32.469Z,99756.04
2022-08-31T00:11:34.716Z,99754.33
2022-08-31T00:12:37.027Z,99754.18
2022-08-31T00:15:02.258Z,99754.33
2022-08-31T00:16:06.222Z,99757.58
2022-08-31T00:17:08.506Z,99753.89
2022-08-31T00:18:10.848Z,99757.72
2022-08-31T00:19:13.516Z,99759.39
2022-08-31T00:20:32.866Z,99758.55
2022-08-31T00:21:22.424Z,99750.61
2022-08-31T00:22:24.757Z,99759.69
2022-08-31T00:23:27.381Z,99764.23
2022-08-31T00:24:29.846Z,99756.14
2022-08-31T00:25:32.175Z,99755.02
2022-08-31T00:26:36.303Z,99748.49
2022-08-31T00:27:39.103Z,99752.87
2022-08-31T00:28:42.798Z,99747.33
2022-08-31T00:29:46.507Z,99747.91
2022-08-31T00:30:49.980Z,99752.47
2022-08-31T00:31:53.149Z,99749.91
2022-08-31T00:32:57.041Z,99757.42
2022-08-31T00:34:01.149Z,99746.20
2022-08-31T00:35:05.055Z,99745.20
2022-08-31T00:36:10.712Z,99747.61
2022-08-31T00:37:14.186Z,99747.46
2022-08-31T00:38:16.624Z,99750.89
2022-08-31T00:39:18.994Z,99748.74
2022-08-31T00:40:22.752Z,99749.33
2022-08-31T00:41:27.022Z,99750.89
2022-08-31T00:42:29.424Z,99746.34
2022-08-31T00:45:01.449Z,99752.47
2022-08-31T00:46:05.450Z,99746.92
2022-08-31T00:47:08.481Z,99746.92
2022-08-31T00:48:11.452Z,99753.30
2022-08-31T00:49:19.469Z,99749.63
2022-08-31T00:50:24.510Z,99750.31
2022-08-31T00:51:28.708Z,99750.90
2022-08-31T00:52:37.837Z,99754.15
2022-08-31T00:53:38.074Z,99752.03
2022-08-31T00:54:44.039Z,99753.78
2022-08-31T00:55:46.336Z,99754.88
2022-08-31T00:56:48.784Z,99752.61
2022-08-31T00:57:52.750Z,99742.08
2022-08-31T00:58:55.229Z,99752.87
2022-08-31T00:59:59.663Z,99751.05
2022-08-31T01:01:02.152Z,99753.02
2022-08-31T01:02:04.754Z,99753.74
2022-08-31T01:03:07.137Z,99756.30
2022-08-31T01:04:09.964Z,99752.72
2022-08-31T01:05:12.412Z,99749.19
2022-08-31T01:06:17.210Z,99751.05
2022-08-31T01:07:20.533Z,99756.44
2022-08-31T01:08:27.093Z,99743.21
2022-08-31T01:09:28.186Z,99754.88
2022-08-31T01:10:34.029Z,99756.44
2022-08-31T01:11:36.912Z,99756.30
2022-08-31T01:12:39.209Z,99758.99
2022-08-31T01:13:41.878Z,99752.87
2022-08-31T01:14:45.253Z,99755.42
2022-08-31T01:15:51.339Z,99752.61
2022-08-31T01:16:55.727Z,99753.74
2022-08-31T01:18:02.496Z,99758.55
2022-08-31T01:19:07.203Z,99746.20
2022-08-31T01:20:25.489Z,99753.45
2022-08-31T01:21:31.780Z,99752.46
2022-08-31T01:23:07.055Z,99751.59
2022-08-31T01:24:09.749Z,99749.91
2022-08-31T01:25:12.320Z,99757.56
2022-08-31T01:26:17.639Z,99749.77
2022-08-31T01:27:23.568Z,99753.73
2022-08-31T01:28:27.820Z,99753.98
2022-08-31T01:29:31.188Z,99752.45
2022-08-31T01:30:35.325Z,99760.94
2022-08-31T01:31:40.882Z,99751.70
2022-08-31T01:32:43.344Z,99753.95
2022-08-31T01:33:45.868Z,99748.42
2022-08-31T01:34:48.405Z,99750.13
2022-08-31T01:35:50.760Z,99752.55
2022-08-31T01:36:53.469Z,99753.97
2022-08-31T01:37:55.761Z,99758.97
2022-08-31T01:38:59.419Z,99759.52
2022-08-31T01:40:02.373Z,99752.45
2022-08-31T01:41:05.538Z,99753.58
2022-08-31T01:42:09.095Z,99754.84
2022-08-31T01:43:11.410Z,99755.54
2022-08-31T01:44:15.269Z,99758.97
2022-08-31T01:45:19.524Z,99751.86
2022-08-31T01:46:23.378Z,99756.67
2022-08-31T01:47:25.892Z,99752.55
2022-08-31T01:48:28.562Z,99752.55
2022-08-31T01:49:30.841Z,99750.72
2022-08-31T01:50:33.331Z,99753.97
2022-08-31T01:51:36.090Z,99757.39
2022-08-31T01:52:38.416Z,99750.00
2022-08-31T01:53:43.355Z,99745.48
2022-08-31T01:54:46.496Z,99741.08
2022-08-31T01:55:48.750Z,99738.52
2022-08-31T01:56:52.028Z,99745.62
2022-08-31T01:57:57.755Z,99743.77
2022-08-31T02:00:32.231Z,99742.08
2022-08-31T02:01:37.691Z,99745.78
2022-08-31T02:02:40.290Z,99744.63
2022-08-31T02:03:44.549Z,99741.78
2022-08-31T02:04:47.695Z,99740.65
2022-08-31T02:05:50.201Z,99740.65
2022-08-31T02:06:56.841Z,99744.22
2022-08-31T02:07:59.297Z,99737.95
2022-08-31T02:09:01.951Z,99739.66
2022-08-31T02:10:05.510Z,99737.81
2022-08-31T02:11:10.172Z,99743.09
2022-08-31T02:12:12.699Z,99744.08
2022-08-31T02:13:15.421Z,99739.66
2022-08-31T02:14:19.552Z,99735.98
2022-08-31T02:15:21.863Z,99735.70
2022-08-31T02:16:25.417Z,99738.98
2022-08-31T02:17:27.733Z,99736.83
2022-08-31T02:18:30.018Z,99730.30
2022-08-31T02:19:33.032Z,99721.91
2022-08-31T02:20:35.500Z,99728.04
2022-08-31T02:21:37.988Z,99724.20
2022-08-31T02:22:40.355Z,99725.77
2022-08-31T02:23:44.548Z,99729.34
2022-08-31T02:24:46.879Z,99726.50
2022-08-31T02:25:49.011Z,99730.19
2022-08-31T02:26:53.795Z,99732.19
2022-08-31T02:27:56.200Z,99733.14
2022-08-31T02:28:59.037Z,99731.43
2022-08-31T02:30:01.365Z,99732.30
2022-08-31T02:31:04.637Z,99733.14
2022-08-31T02:32:08.951Z,99730.44
2022-08-31T02:33:13.355Z,99734.89
2022-08-31T02:34:18.525Z,99739.38
2022-08-31T02:35:20.971Z,99737.59
2022-08-31T02:36:24.290Z,99730.44
2022-08-31T02:37:28.037Z,99735.11
2022-08-31T02:38:33.037Z,99733.44
2022-08-31T02:39:38.117Z,99735.26
2022-08-31T02:40:41.836Z,99733.72
2022-08-31T02:41:45.198Z,99730.30
2022-08-31T02:42:53.291Z,99725.89
2022-08-31T02:43:51.868Z,99726.61
2022-08-31T02:44:54.311Z,99725.48
2022-08-31T02:45:57.438Z,99728.88
2022-08-31T02:47:01.694Z,99724.94
2022-08-31T02:48:08.917Z,99731.90
2022-08-31T02:49:13.059Z,99727.19
2022-08-31T02:50:16.078Z,99727.08
2022-08-31T02:51:18.310Z,99730.77
2022-08-31T02:52:22.537Z,99740.69
2022-08-31T02:53:25.800Z,99737.29
2022-08-31T02:54:29.295Z,99730.04
2022-08-31T02:55:31.663Z,99740.69
2022-08-31T02:56:36.122Z,99734.30
2022-08-31T02:57:38.573Z,99736.16
2022-08-31T02:58:40.928Z,99733.61
2022-08-31T02:59:43.181Z,99741.55
2022-08-31T03:00:46.347Z,99731.05
2022-08-31T03:01:49.230Z,99738.53
2022-08-31T03:02:53.401Z,99736.97
2022-08-31T03:03:56.158Z,99725.48
2022-08-31T03:05:00.919Z,99735.84
2022-08-31T03:06:03.776Z,99735.84
2022-08-31T03:07:07.126Z,99732.85
2022-08-31T03:08:10.827Z,99734.13
2022-08-31T03:09:13.296Z,99730.88
2022-08-31T03:10:16.334Z,99722.79
2022-08-31T03:11:18.789Z,99729.17
2022-08-31T03:12:21.155Z,99725.75
2022-08-31T03:13:24.024Z,99729.45
2022-08-31T03:14:26.847Z,99726.61
2022-08-31T03:15:30.609Z,99733.58
2022-08-31T03:16:35.480Z,99727.89
2022-08-31T03:17:38.483Z,99728.59
2022-08-31T03:18:43.201Z,99729.31
2022-08-31T03:19:46.016Z,99734.56
2022-08-31T03:20:49.120Z,99729.17
2022-08-31T03:21:56.190Z,99730.45
2022-08-31T03:22:56.648Z,99726.77
2022-08-31T03:24:00.960Z,99726.77
2022-08-31T03:25:04.945Z,99720.64
2022-08-31T03:26:08.253Z,99717.66
2022-08-31T03:27:11.484Z,99722.06
2022-08-31T03:28:14.499Z,99722.64
2022-08-31T03:29:18.689Z,99724.05
2022-08-31T03:30:31.374Z,99729.00
2022-08-31T03:31:43.502Z,99725.86
2022-08-31T03:32:46.702Z,99732.11
2022-08-31T03:33:49.011Z,99731.61
2022-08-31T03:34:55.511Z,99736.38
2022-08-31T03:35:57.836Z,99736.31
2022-08-31T03:37:00.470Z,99734.37
2022-08-31T03:38:03.671Z,99729.84
2022-08-31T03:39:06.154Z,99737.56
2022-08-31T03:40:09.798Z,99736.44
2022-08-31T03:41:14.062Z,99733.51
2022-08-31T03:42:17.611Z,99731.20
2022-08-31T03:43:19.978Z,99734.05
2022-08-31T03:44:22.414Z,99733.05
2022-08-31T03:45:26.303Z,99734.44
2022-08-31T03:46:30.701Z,99735.36
2022-08-31T03:47:34.421Z,99745.89
2022-08-31T03:48:36.927Z,99741.91
2022-08-31T03:49:40.072Z,99741.33
2022-08-31T03:50:44.428Z,99736.75
2022-08-31T03:51:48.647Z,99737.86
2022-08-31T03:52:53.037Z,99734.69
2022-08-31T03:56:00.044Z,99742.72
2022-08-31T03:57:04.571Z,99741.20
2022-08-31T03:58:07.430Z,99749.15
2022-08-31T03:59:10.328Z,99747.19
2022-08-31T04:00:17.270Z,99745.02
2022-08-31T04:01:21.897Z,99750.83
2022-08-31T04:02:38.504Z,99744.71
2022-08-31T04:04:57.165Z,99744.59
2022-08-31T04:06:19.989Z,99741.19
2022-08-31T04:07:42.181Z,99749.87
2022-08-31T04:09:04.196Z,99745.48
2022-08-31T04:10:19.147Z,99742.40
2022-08-31T04:11:45.207Z,99732.79
2022-08-31T04:12:46.301Z,99735.59
2022-08-31T04:13:50.433Z,99734.10
2022-08-31T04:15:11.769Z,99733.52
2022-08-31T04:16:20.768Z,99730.91
2022-08-31T04:17:41.859Z,99737.54
2022-08-31T04:18:49.359Z,99738.30
2022-08-31T04:19:51.680Z,99738.17
2022-08-31T04:21:06.079Z,99738.51
2022-08-31T04:22:09.401Z,99737.66
2022-08-31T04:23:13.536Z,99743.02
2022-08-31T04:24:20.470Z,99736.78
2022-08-31T04:25:24.077Z,99738.51
2022-08-31T04:26:33.935Z,99736.89
2022-08-31T04:27:36.466Z,99736.41
2022-08-31T04:28:38.830Z,99740.42
2022-08-31T04:29:41.091Z,99740.16
2022-08-31T04:30:44.217Z,99742.59
2022-08-31T04:31:48.698Z,99743.55
2022-08-31T04:32:52.160Z,99743.55
2022-08-31T04:33:54.761Z,99741.70
2022-08-31T04:34:57.481Z,99747.34
2022-08-31T04:35:59.736Z,99748.05
2022-08-31T04:37:02.789Z,99744.88
2022-08-31T04:38:07.636Z,99753.30
2022-08-31T04:39:13.316Z,99753.61
2022-08-31T04:40:17.565Z,99744.30
2022-08-31T04:41:23.020Z,99746.39
2022-08-31T04:42:29.881Z,99744.41
2022-08-31T04:43:32.393Z,99747.00
2022-08-31T04:44:34.656Z,99748.55
2022-08-31T04:45:41.283Z,99745.72
2022-08-31T04:46:44.551Z,99751.10
2022-08-31T04:47:47.922Z,99755.51
2022-08-31T04:48:50.491Z,99755.24
2022-08-31T04:49:53.981Z,99758.94
2022-08-31T04:51:04.298Z,99754.41
2022-08-31T04:52:07.719Z,99753.42
2022-08-31T04:53:10.393Z,99752.45
2022-08-31T04:54:13.240Z,99758.14
2022-08-31T04:55:16.529Z,99750.41
2022-08-31T04:56:25.016Z,99750.03
2022-08-31T04:57:27.735Z,99755.98
2022-08-31T04:58:30.007Z,99753.76
2022-08-31T04:59:33.681Z,99756.83
2022-08-31T05:00:53.359Z,99749.77
2022-08-31T05:02:00.726Z,99752.59
2022-08-31T05:03:05.720Z,99753.70
2022-08-31T05:04:08.328Z,99747.20
2022-08-31T05:05:11.856Z,99747.91
2022-08-31T05:06:16.068Z,99751.44
2022-08-31T05:07:19.516Z,99751.44
2022-08-31T05:08:22.271Z,99752.18
2022-08-31T05:09:25.418Z,99754.47
2022-08-31T05:10:28.038Z,99754.33
2022-08-31T05:11:31.510Z,99752.78
2022-08-31T05:12:33.794Z,99748.24
2022-08-31T05:13:36.056Z,99761.30
2022-08-31T05:14:39.587Z,99752.10
2022-08-31T05:15:44.348Z,99752.10
2022-08-31T05:16:48.772Z,99763.77
2022-08-31T05:17:51.757Z,99758.38
2022-08-31T05:18:54.008Z,99764.78
2022-08-31T05:19:56.309Z,99759.26
2022-08-31T05:22:19.228Z,99756.92
2022-08-31T05:23:22.956Z,99760.92
2022-08-31T05:24:25.858Z,99755.34
2022-08-31T05:25:30.473Z,99756.25
2022-08-31T05:26:38.990Z,99758.61
2022-08-31T05:27:43.940Z,99755.78
2022-08-31T05:28:49.826Z,99752.59
2022-08-31T05:29:52.513Z,99761.97
2022-08-31T05:31:14.942Z,99758.03
2022-08-31T05:32:19.162Z,99761.30
2022-08-31T05:33:21.474Z,99760.31
2022-08-31T05:34:24.017Z,99759.58
2022-08-31T05:35:26.510Z,99757.16
2022-08-31T05:36:30.717Z,99767.09
2022-08-31T05:37:33.020Z,99763.41
2022-08-31T05:38:36.140Z,99766.34
2022-08-31T05:39:39.236Z,99759.78
2022-08-31T05:40:41.839Z,99762.55
2022-08-31T05:41:45.209Z,99759.38
2022-08-31T05:42:48.778Z,99759.38
2022-08-31T05:43:51.080Z,99758.88
2022-08-31T05:44:54.571Z,99763.73
2022-08-31T05:45:57.950Z,99756.12
2022-08-31T05:47:03.964Z,99759.52
2022-08-31T05:48:05.027Z,99762.67
2022-08-31T05:49:08.725Z,99758.60
2022-08-31T05:50:14.410Z,99759.77
2022-08-31T05:51:18.174Z,99759.26
2022-08-31T05:52:23.883Z,99751.78
2022-08-31T05:53:26.163Z,99762.31
2022-08-31T05:54:30.583Z,99758.36
2022-08-31T05:55:34.767Z,99754.42
2022-08-31T05:56:39.598Z,99760.38
2022-08-31T05:57:42.018Z,99760.38
2022-08-31T05:58:44.669Z,99757.40
2022-08-31T05:59:49.160Z,99755.30
2022-08-31T06:00:52.263Z,99764.23
2022-08-31T06:01:56.702Z,99768.07
2022-08-31T06:03:03.005Z,99762.50
2022-08-31T06:04:05.613Z,99762.61
2022-08-31T06:05:08.658Z,99753.41
2022-08-31T06:06:12.050Z,99764.18
2022-08-31T06:07:14.446Z,99761.48
2022-08-31T06:08:19.108Z,99761.48
2022-08-31T06:09:25.059Z,99764.05
2022-08-31T06:10:29.159Z,99764.18
2022-08-31T06:11:31.936Z,99770.12
2022-08-31T06:12:35.569Z,99770.12
2022-08-31T06:13:38.013Z,99771.61
2022-08-31T06:14:40.899Z,99762.73
2022-08-31T06:15:45.096Z,99771.02
2022-08-31T06:16:48.733Z,99759.45
2022-08-31T06:17:52.842Z,99758.74
2022-08-31T06:18:55.262Z,99763.52
2022-08-31T06:19:59.403Z,99759.38
2022-08-31T06:22:16.247Z,99761.63
2022-08-31T06:23:19.093Z,99758.26
2022-08-31T06:24:23.448Z,99762.92
2022-08-31T06:25:25.710Z,99755.70
2022-08-31T06:26:30.132Z,99758.26
2022-08-31T06:27:33.639Z,99766.06
2022-08-31T06:28:36.955Z,99765.83
2022-08-31T06:29:39.380Z,99765.83
2022-08-31T06:30:55.043Z,99768.39
2022-08-31T06:31:46.800Z,99762.40
2022-08-31T06:32:50.936Z,99762.40
2022-08-31T06:33:55.151Z,99768.52
2022-08-31T06:34:59.880Z,99768.52
2022-08-31T06:36:12.935Z,99767.52
2022-08-31T06:37:29.496Z,99767.52
2022-08-31T06:38:43.731Z,99771.92
2022-08-31T06:39:47.913Z,99773.69
2022-08-31T06:40:50.330Z,99778.69
2022-08-31T06:42:03.964Z,99767.72
2022-08-31T06:43:25.577Z,99771.25
2022-08-31T06:44:29.920Z,99774.41
2022-08-31T06:45:34.140Z,99766.73
2022-08-31T06:47:52.919Z,99772.96
2022-08-31T06:48:57.155Z,99772.26
2022-08-31T06:49:59.711Z,99772.65
2022-08-31T06:51:02.243Z,99773.27
2022-08-31T06:52:04.721Z,99778.28
2022-08-31T06:53:08.736Z,99774.72
2022-08-31T06:54:29.164Z,99776.62
2022-08-31T06:56:35.512Z,99794.69
2022-08-31T06:58:54.300Z,99780.70
2022-08-31T07:00:03.137Z,99781.09
2022-08-31T07:01:34.887Z,99779.73
2022-08-31T07:02:30.213Z,99781.65
2022-08-31T07:03:35.286Z,99772.80
2022-08-31T07:04:38.335Z,99773.98
2022-08-31T07:05:41.579Z,99772.47
2022-08-31T07:06:44.460Z,99766.55
2022-08-31T07:07:48.033Z,99774.24
2022-08-31T07:08:53.684Z,99767.85
2022-08-31T07:09:57.587Z,99773.00
2022-08-31T07:11:01.180Z,99771.75
2022-08-31T07:12:04.763Z,99765.89
2022-08-31T07:13:07.842Z,99790.09
2022-08-31T07:14:11.369Z,99771.97
2022-08-31T07:15:14.214Z,99771.70
2022-08-31T07:16:18.474Z,99792.12
2022-08-31T07:17:21.083Z,99771.28
2022-08-31T07:18:23.570Z,99789.73
2022-08-31T07:19:27.857Z,99776.86
2022-08-31T07:20:31.662Z,99788.93
2022-08-31T07:23:09.025Z,99768.19
2022-08-31T07:24:15.092Z,99784.05
2022-08-31T07:25:18.586Z,99774.98
2022-08-31T07:26:26.873Z,99774.84
2022-08-31T07:27:30.561Z,99789.86
2022-08-31T07:28:34.472Z,99786.32
2022-08-31T07:29:37.767Z,99772.98
2022-08-31T07:30:41.595Z,99777.25
2022-08-31T07:31:45.550Z,99778.83
2022-08-31T07:32:50.163Z,99788.35
2022-08-31T07:33:54.261Z,99785.38
2022-08-31T07:35:00.727Z,99770.05
2022-08-31T07:36:04.500Z,99785.23
2022-08-31T07:37:08.929Z,99778.86
2022-08-31T07:38:13.126Z,99770.78
2022-08-31T07:39:15.497Z,99775.58
2022-08-31T07:40:20.980Z,99786.36
2022-08-31T07:41:23.905Z,99786.95
2022-08-31T07:42:31.640Z,99777.15
2022-08-31T07:43:36.496Z,99782.68
2022-08-31T07:44:39.138Z,99780.27
2022-08-31T07:45:42.048Z,99786.64
2022-08-31T07:46:48.414Z,99777.81
2022-08-31T07:47:53.753Z,99784.36
2022-08-31T07:48:58.500Z,99785.76
2022-08-31T07:50:18.745Z,99777.78
2022-08-31T07:51:28.886Z,99769.59
2022-08-31T07:52:47.517Z,99766.62
2022-08-31T07:55:16.525Z,99780.89
2022-08-31T07:56:27.080Z,99778.86
2022-08-31T07:57:43.468Z,99784.25
2022-08-31T07:58:54.579Z,99768.08
2022-08-31T07:59:58.027Z,99759.85
2022-08-31T08:01:00.693Z,99773.05
2022-08-31T08:02:05.254Z,99763.03
2022-08-31T08:03:08.250Z,99764.02
2022-08-31T08:04:16.073Z,99765.80
2022-08-31T08:05:37.319Z,99764.72
2022-08-31T08:06:56.948Z,99764.72
2022-08-31T08:08:13.621Z,99756.63
2022-08-31T08:09:24.949Z,99759.18
2022-08-31T08:10:40.962Z,99761.77
2022-08-31T08:12:04.572Z,99754.38
2022-08-31T08:13:09.173Z,99754.66
2022-08-31T08:14:19.415Z,99757.64
2022-08-31T08:15:27.042Z,99770.98
2022-08-31T08:16:35.351Z,99769.96
2022-08-31T08:17:45.653Z,99765.80
2022-08-31T08:18:49.956Z,99753.34
2022-08-31T08:19:54.275Z,99762.27
2022-08-31T08:20:57.653Z,99767.80
2022-08-31T08:22:01.108Z,99762.27
2022-08-31T08:23:11.082Z,99753.09
2022-08-31T08:25:34.621Z,99761.78
2022-08-31T08:26:54.274Z,99750.98
2022-08-31T08:27:57.651Z,99748.28
2022-08-31T08:29:04.570Z,99747.27
2022-08-31T08:30:09.594Z,99755.22
2022-08-31T08:32:29.868Z,99751.27
2022-08-31T08:33:34.417Z,99746.88
2022-08-31T08:34:41.219Z,99752.13
2022-08-31T08:35:43.826Z,99750.13
2022-08-31T08:36:47.312Z,99743.61
2022-08-31T08:38:00.586Z,99740.48
2022-08-31T08:38:55.111Z,99742.92
2022-08-31T08:39:59.718Z,99743.77
2022-08-31T08:41:05.799Z,99742.78
2022-08-31T08:42:12.458Z,99738.09
2022-08-31T08:43:15.432Z,99742.50
2022-08-31T08:44:18.708Z,99744.36
2022-08-31T08:45:24.145Z,99741.77
2022-08-31T08:47:51.802Z,99748.59
2022-08-31T08:48:55.888Z,99745.89
2022-08-31T08:49:59.287Z,99748.73
2022-08-31T08:51:03.763Z,99738.82
2022-08-31T08:52:10.972Z,99740.50
2022-08-31T08:53:14.582Z,99727.73
2022-08-31T08:54:22.466Z,99741.08
2022-08-31T08:55:39.314Z,99740.80
2022-08-31T08:56:42.401Z,99737.81
2022-08-31T08:57:46.008Z,99730.00
2022-08-31T08:58:48.356Z,99729.31
2022-08-31T08:59:54.772Z,99740.24
2022-08-31T09:00:57.799Z,99727.59
2022-08-31T09:02:00.678Z,99731.28
2022-08-31T09:03:22.513Z,99726.03
2022-08-31T09:04:39.491Z,99739.23
2022-08-31T09:06:15.682Z,99736.38
2022-08-31T09:07:47.337Z,99747.06
2022-08-31T09:09:06.283Z,99747.06
2022-08-31T09:10:19.270Z,99744.63
2022-08-31T09:11:28.124Z,99740.50
2022-08-31T09:12:39.072Z,99742.50
2022-08-31T09:14:00.300Z,99734.95
2022-08-31T09:15:12.300Z,99735.38
2022-08-31T09:16:36.668Z,99736.36
2022-08-31T09:17:42.813Z,99733.41
2022-08-31T09:18:56.823Z,99736.81
2022-08-31T09:20:00.183Z,99727.73
2022-08-31T09:21:24.788Z,99724.75
2022-08-31T09:23:48.756Z,99728.58
2022-08-31T09:24:52.219Z,99731.27
2022-08-31T09:26:18.476Z,99748.32
2022-08-31T09:28:56.041Z,99744.77
2022-08-31T09:30:00.278Z,99743.04
2022-08-31T09:31:02.651Z,99732.39
2022-08-31T09:32:06.751Z,99741.64
2022-08-31T09:33:26.734Z,99738.08
2022-08-31T09:34:31.046Z,99736.11
2022-08-31T09:35:35.466Z,99725.73
2022-08-31T09:36:38.177Z,99725.73
2022-08-31T09:37:41.602Z,99740.09
2022-08-31T09:38:45.398Z,99740.09
2022-08-31T09:39:49.140Z,99740.23
2022-08-31T09:40:51.588Z,99734.95
2022-08-31T09:41:56.097Z,99733.83
2022-08-31T09:44:33.029Z,99737.89
2022-08-31T09:45:38.917Z,99740.61
2022-08-31T09:46:43.825Z,99734.87
2022-08-31T09:47:49.351Z,99736.69
2022-08-31T09:48:54.232Z,99731.67
2022-08-31T09:49:56.441Z,99725.09
2022-08-31T09:51:00.860Z,99727.03
2022-08-31T09:52:19.141Z,99726.84
2022-08-31T09:53:23.500Z,99732.88
2022-08-31T09:54:25.690Z,99722.72
2022-08-31T09:55:27.820Z,99722.65
2022-08-31T09:56:30.747Z,99728.16
2022-08-31T09:58:00.358Z,99726.81
2022-08-31T09:59:03.017Z,99721.09
2022-08-31T10:00:09.688Z,99719.25
2022-08-31T10:01:24.332Z,99715.84
2022-08-31T10:02:30.875Z,99717.66
2022-08-31T10:03:34.130Z,99709.25
2022-08-31T10:06:00.474Z,99716.48
2022-08-31T10:07:12.104Z,99723.41
2022-08-31T10:08:39.838Z,99727.56
2022-08-31T10:09:55.141Z,99729.80
2022-08-31T10:10:56.941Z,99728.34
2022-08-31T10:12:00.337Z,99731.39
2022-08-31T10:13:08.445Z,99733.13
2022-08-31T10:14:29.493Z,99725.33
2022-08-31T10:15:47.454Z,99725.78
2022-08-31T10:18:14.523Z,99724.68
2022-08-31T10:20:41.210Z,99723.09
2022-08-31T10:21:57.442Z,99721.05
2022-08-31T10:23:20.470Z,99725.06
2022-08-31T10:24:29.662Z,99733.84
2022-08-31T10:25:41.750Z,99728.47
2022-08-31T10:26:45.725Z,99730.05
2022-08-31T10:28:07.020Z,99738.24
2022-08-31T10:30:46.616Z,99725.78
2022-08-31T10:31:50.246Z,99724.83
2022-08-31T10:32:56.227Z,99726.80
2022-08-31T10:34:02.950Z,99733.14
2022-08-31T10:36:26.559Z,99730.70
2022-08-31T10:41:56.016Z,99731.06
2022-08-31T10:43:04.760Z,99731.94
2022-08-31T10:45:31.681Z,99731.43
2022-08-31T10:46:34.785Z,99735.09
2022-08-31T10:47:41.176Z,99726.20
2022-08-31T10:48:45.094Z,99729.59
2022-08-31T10:49:53.538Z,99723.97
2022-08-31T10:52:36.144Z,99715.16
2022-08-31T10:53:54.070Z,99720.18
2022-08-31T10:55:20.752Z,99705.64
2022-08-31T10:57:54.448Z,99718.23
2022-08-31T10:59:06.246Z,99715.93
2022-08-31T11:00:20.473Z,99714.82
2022-08-31T11:01:45.171Z,99715.70
2022-08-31T11:02:54.538Z,99715.91
2022-08-31T11:04:30.498Z,99711.55
2022-08-31T11:05:41.752Z,99712.52
2022-08-31T11:06:57.678Z,99717.17
2022-08-31T11:08:20.580Z,99709.34
2022-08-31T11:09:34.854Z,99706.91
2022-08-31T11:10:50.979Z,99707.52
2022-08-31T11:13:49.116Z,99710.69
2022-08-31T11:15:09.187Z,99715.91
2022-08-31T11:16:25.906Z,99719.48
2022-08-31T11:17:48.665Z,99709.22
2022-08-31T11:18:56.389Z,99715.80
2022-08-31T11:20:25.387Z,99712.02
2022-08-31T11:21:37.776Z,99712.98
2022-08-31T11:24:38.855Z,99705.64
2022-08-31T11:26:10.235Z,99701.86
2022-08-31T11:27:21.772Z,99712.99
2022-08-31T11:28:54.315Z,99706.88
2022-08-31T11:31:20.480Z,99696.48
2022-08-31T11:32:39.903Z,99693.66
2022-08-31T11:34:06.021Z,99701.59
2022-08-31T11:36:07.031Z,99707.23
2022-08-31T11:37:09.282Z,99702.11
2022-08-31T11:38:32.394Z,99703.08
2022-08-31T11:39:37.789Z,99702.95
2022-08-31T11:40:49.195Z,99702.73
2022-08-31T11:41:53.038Z,99703.70
2022-08-31T11:42:57.415Z,99685.60
2022-08-31T11:44:01.069Z,99690.01
2022-08-31T11:45:06.189Z,99690.75
2022-08-31T11:46:27.346Z,99694.19
2022-08-31T11:47:33.048Z,99685.25
2022-08-31T11:48:55.549Z,99688.06
2022-08-31T11:49:59.876Z,99690.01
2022-08-31T11:51:05.205Z,99698.45
2022-08-31T11:52:43.413Z,99691.49
2022-08-31T11:53:47.245Z,99687.09
2022-08-31T11:54:53.491Z,99693.44
2022-08-31T11:55:56.342Z,99696.13
2022-08-31T11:56:59.122Z,99689.78
2022-08-31T11:58:05.673Z,99692.59
2022-08-31T11:59:31.192Z,99700.78
2022-08-31T12:01:01.238Z,99696.37
2022-08-31T12:03:48.819Z,99684.15
2022-08-31T12:05:04.032Z,99691.23
2022-08-31T12:07:37.054Z,99686.22
2022-08-31T12:08:39.519Z,99674.89
2022-08-31T12:10:05.631Z,99676.98
2022-08-31T12:11:17.898Z,99677.08
2022-08-31T12:12:47.397Z,99681.48
2022-08-31T12:15:14.590Z,99671.59
2022-08-31T12:18:27.387Z,99675.38
2022-08-31T12:19:37.496Z,99672.45
2022-08-31T12:21:11.898Z,99675.02
2022-08-31T12:22:35.341Z,99669.52
2022-08-31T12:24:08.436Z,99679.16
2022-08-31T12:26:45.096Z,99672.04
2022-08-31T12:29:32.800Z,99670.58
2022-08-31T12:30:36.734Z,99670.61
2022-08-31T12:31:40.291Z,99675.02
2022-08-31T12:32:43.074Z,99672.20
2022-08-31T12:35:21.721Z,99668.02
2022-08-31T12:36:28.122Z,99676.09
2022-08-31T12:37:35.474Z,99676.83
2022-08-31T12:38:37.932Z,99676.95
2022-08-31T12:39:40.301Z,99672.42
2022-08-31T12:40:44.238Z,99675.95
2022-08-31T12:41:52.477Z,99671.33
2022-08-31T12:42:58.103Z,99670.23
2022-08-31T12:44:00.643Z,99673.53
2022-08-31T12:45:06.185Z,99679.00
2022-08-31T12:46:34.410Z,99670.09
2022-08-31T12:49:11.225Z,99667.88
2022-08-31T12:51:47.292Z,99677.77
2022-08-31T12:54:12.179Z,99682.42
2022-08-31T12:57:05.912Z,99685.99
2022-08-31T12:58:39.535Z,99674.50
2022-08-31T13:00:01.579Z,99684.15
2022-08-31T13:01:09.510Z,99678.67
2022-08-31T13:02:12.362Z,99680.36
2022-08-31T13:03:23.696Z,99676.70
2022-08-31T13:04:27.242Z,99674.86
2022-08-31T13:05:31.791Z,99666.70
2022-08-31T13:06:37.762Z,99666.70
2022-08-31T13:07:41.457Z,99685.11
2022-08-31T13:08:48.337Z,99682.16
2022-08-31T13:10:10.779Z,99680.31
2022-08-31T13:11:16.984Z,99680.31
2022-08-31T13:12:22.611Z,99684.72
2022-08-31T13:13:26.885Z,99676.66
2022-08-31T13:14:32.602Z,99673.84
2022-08-31T13:15:39.828Z,99675.69
2022-08-31T13:17:56.498Z,99684.68
2022-08-31T13:19:03.424Z,99677.89
2022-08-31T13:20:06.855Z,99676.31
2022-08-31T13:21:09.402Z,99674.63
2022-08-31T13:22:11.790Z,99672.78
2022-08-31T13:23:18.268Z,99685.83
2022-08-31T13:24:24.276Z,99685.83
2022-08-31T13:25:28.481Z,99685.34
2022-08-31T13:26:31.601Z,99683.84
2022-08-31T13:27:34.988Z,99690.53
2022-08-31T13:28:37.536Z,99686.48
2022-08-31T13:29:40.759Z,99682.42
2022-08-31T13:30:46.117Z,99682.76
2022-08-31T13:31:50.313Z,99678.48
2022-08-31T13:32:52.891Z,99679.59
2022-08-31T13:34:06.356Z,99680.83
2022-08-31T13:35:11.273Z,99677.56
2022-08-31T13:36:21.669Z,99683.92
2022-08-31T13:37:26.754Z,99690.66
2022-08-31T13:38:33.124Z,99674.66
2022-08-31T13:39:35.667Z,99654.31
2022-08-31T13:40:39.226Z,99681.28
2022-08-31T13:42:57.553Z,99689.92
2022-08-31T13:44:03.740Z,99694.38
2022-08-31T13:45:21.649Z,99692.66
2022-08-31T13:46:41.547Z,99690.23
2022-08-31T13:47:32.408Z,99693.89
2022-08-31T13:48:35.868Z,99695.25
2022-08-31T13:49:39.881Z,99703.70
2022-08-31T13:50:47.725Z,99710.18
2022-08-31T13:51:49.954Z,99700.75
2022-08-31T13:53:24.838Z,99704.92
2022-08-31T13:54:14.233Z,99707.25
2022-08-31T13:55:35.362Z,99702.01
2022-08-31T13:56:43.943Z,99704.69
2022-08-31T13:57:57.897Z,99705.53
2022-08-31T13:59:23.006Z,99706.41
2022-08-31T14:00:35.295Z,99707.63
2022-08-31T14:01:37.880Z,99700.42
2022-08-31T14:02:41.144Z,99709.32
2022-08-31T14:03:51.881Z,99712.00
2022-08-31T14:06:14.918Z,99709.09
2022-08-31T14:07:23.236Z,99715.45
2022-08-31T14:08:26.415Z,99712.77
2022-08-31T14:09:30.902Z,99712.02
2022-08-31T14:10:37.077Z,99707.03